Time;durP1;ratioP1;P1;durP2;ratioP2;P2;SDS_P1;SDS_P2;PMS_P1;PMS_P2;Temp;Humidity;BMP_temperature;BMP_pressure;BME280_temperature;BME280_humidity;BME280_pressure;Samples;Min_cycle;Max_cycle;Signal;HPM_P1;HPM_P2
2022/01/31 00:00:22;;;;;;;45.95;14.77;;;;;;;3.89;80.78;101593.19;5072153;28;20025;-77
2022/01/31 00:02:48;;;;;;;30.92;9.18;;;;;;;3.88;80.32;101578.63;5070536;28;20492;-78
2022/01/31 00:05:14;;;;;;;44.40;14.43;;;;;;;3.89;80.53;101547.03;5072112;28;20032;-78
2022/01/31 00:07:39;;;;;;;68.53;24.35;;;;;;;3.88;80.21;101520.53;5071945;28;20070;-78
2022/01/31 00:10:11;;;;;;;34.28;13.45;;;;;;;3.84;80.78;101507.59;5071140;28;20485;-78
2022/01/31 00:13:31;;;;;;;31.27;11.68;;;;;;;3.91;80.37;101515.41;5071816;28;20031;-78
2022/01/31 00:15:24;;;;;;;22.23;7.97;;;;;;;3.83;80.91;101490.50;5067707;28;20036;-78
2022/01/31 00:17:50;;;;;;;28.63;9.55;;;;;;;3.86;81.22;101500.81;5071389;28;20060;-78
2022/01/31 00:20:15;;;;;;;35.28;11.48;;;;;;;3.89;80.85;101501.69;5071928;28;20378;-78
2022/01/31 00:22:41;;;;;;;40.80;15.02;;;;;;;3.88;81.49;101500.00;5071568;28;20036;-78
2022/01/31 00:25:06;;;;;;;34.85;12.77;;;;;;;3.91;81.00;101487.22;5071291;28;20107;-78
2022/01/31 00:27:32;;;;;;;20.90;7.55;;;;;;;3.91;80.91;101453.00;5066585;28;20406;-78
2022/01/31 00:29:57;;;;;;;22.50;9.15;;;;;;;3.93;81.53;101447.06;5072085;28;20052;-78
2022/01/31 00:32:22;;;;;;;23.52;9.40;;;;;;;3.94;81.30;101443.66;5070046;28;20494;-78
2022/01/31 00:34:47;;;;;;;25.10;7.70;;;;;;;4.00;81.38;101430.06;5070162;28;20032;-78
2022/01/31 00:37:13;;;;;;;20.05;7.60;;;;;;;3.98;81.63;101419.75;5071279;28;20437;-78
2022/01/31 00:39:38;;;;;;;20.08;6.90;;;;;;;3.95;82.55;101412.06;5069281;28;20059;-78
2022/01/31 00:42:05;;;;;;;19.73;5.88;;;;;;;3.95;82.63;101399.22;5070788;28;20039;-78
2022/01/31 00:44:47;;;;;;;18.98;5.32;;;;;;;3.96;82.37;101377.84;5071501;28;20436;-78
2022/01/31 00:47:21;;;;;;;14.85;5.28;;;;;;;4.01;82.39;101364.22;5071583;28;20024;-77
2022/01/31 00:49:52;;;;;;;17.38;6.35;;;;;;;4.04;82.70;101356.56;5063740;28;20028;-78
2022/01/31 00:52:17;;;;;;;17.15;5.93;;;;;;;4.04;83.24;101342.03;5071271;28;20024;-77
2022/01/31 00:54:43;;;;;;;16.38;5.30;;;;;;;4.05;83.40;101338.63;5071450;28;20372;-77
2022/01/31 00:57:08;;;;;;;16.40;5.57;;;;;;;4.02;84.23;101332.63;5069654;28;20034;-77
2022/01/31 00:59:34;;;;;;;15.43;5.25;;;;;;;3.95;85.32;101317.16;5071384;28;20404;-77
2022/01/31 01:01:59;;;;;;;15.35;5.30;;;;;;;3.87;86.74;101307.66;5071474;28;20055;-77
2022/01/31 01:04:25;;;;;;;17.50;5.60;;;;;;;3.81;86.88;101305.03;5071099;28;20371;-77
2022/01/31 01:06:50;;;;;;;19.17;5.78;;;;;;;3.80;87.68;101296.47;5071243;28;20024;-77
2022/01/31 01:09:15;;;;;;;12.73;5.30;;;;;;;3.78;87.21;101285.34;5071146;28;20025;-77
2022/01/31 01:11:41;;;;;;;18.60;5.68;;;;;;;3.78;88.19;101271.66;5070880;28;20028;-77
2022/01/31 01:14:06;;;;;;;18.63;5.20;;;;;;;3.75;89.18;101274.19;5071180;28;20028;-79
2022/01/31 01:16:32;;;;;;;17.60;5.43;;;;;;;3.75;89.35;101267.38;5062666;28;20032;-78
2022/01/31 01:18:57;;;;;;;14.50;5.25;;;;;;;3.74;90.16;101264.78;5069382;28;20029;-78
2022/01/31 01:21:23;;;;;;;16.45;5.80;;;;;;;3.70;90.14;101245.94;5069283;28;20024;-78
2022/01/31 01:23:48;;;;;;;17.75;5.72;;;;;;;3.69;90.50;101238.22;5069694;28;20077;-78
2022/01/31 01:26:13;;;;;;;17.17;5.70;;;;;;;3.61;91.29;101227.91;5069702;28;20031;-78
2022/01/31 01:28:39;;;;;;;13.90;5.30;;;;;;;3.72;91.42;101221.19;5070560;28;20033;-78
2022/01/31 01:31:04;;;;;;;26.73;6.07;;;;;;;3.57;92.58;101201.38;5070018;28;20031;-78
2022/01/31 01:33:37;;;;;;;14.60;6.03;;;;;;;3.55;92.67;101191.94;5070507;28;20032;-79
2022/01/31 01:36:04;;;;;;;19.38;5.97;;;;;;;3.55;93.13;101184.25;5070594;28;20462;-77
2022/01/31 01:38:30;;;;;;;20.20;5.93;;;;;;;3.52;93.48;101168.84;5070360;28;20045;-78
2022/01/31 01:40:57;;;;;;;17.38;5.50;;;;;;;3.57;93.14;101162.06;5070662;28;20427;-78
2022/01/31 01:43:23;;;;;;;17.67;6.53;;;;;;;3.52;93.57;101164.59;5070130;28;20056;-78
2022/01/31 01:45:51;;;;;;;20.48;6.93;;;;;;;3.53;94.27;101144.97;5068869;28;20119;-78
2022/01/31 01:48:17;;;;;;;21.00;6.57;;;;;;;3.55;94.30;101146.66;5067283;28;20036;-79
2022/01/31 01:50:42;;;;;;;20.65;6.97;;;;;;;3.55;94.75;101145.81;5070725;28;20020;-79
2022/01/31 01:53:08;;;;;;;15.43;6.70;;;;;;;3.61;95.26;101130.50;5069874;28;20032;-80
2022/01/31 01:55:33;;;;;;;21.40;6.13;;;;;;;3.60;95.13;101127.94;5070920;28;20027;-79
2022/01/31 01:57:59;;;;;;;18.08;6.30;;;;;;;3.59;95.83;101104.00;5069774;28;20101;-79
2022/01/31 02:00:27;;;;;;;19.52;6.05;;;;;;;3.61;96.02;101098.91;5068161;28;20479;-79
2022/01/31 02:02:54;;;;;;;18.05;6.00;;;;;;;3.65;96.23;101080.13;5068146;28;20049;-79
2022/01/31 02:05:20;;;;;;;17.77;6.40;;;;;;;3.63;96.24;101072.41;5069601;28;20103;-79
2022/01/31 02:07:46;;;;;;;15.40;6.00;;;;;;;3.63;96.64;101074.97;5068262;28;20124;-78
2022/01/31 02:10:12;;;;;;;15.52;6.45;;;;;;;3.61;97.99;101055.31;5070235;28;20479;-78
2022/01/31 02:12:47;;;;;;;18.08;6.40;;;;;;;3.62;98.20;101045.06;5069898;28;20078;-78
2022/01/31 02:15:14;;;;;;;15.10;6.00;;;;;;;3.66;97.92;101048.53;5069354;28;20029;-78
2022/01/31 02:17:40;;;;;;;17.88;6.40;;;;;;;3.66;97.61;101033.16;5069729;28;20120;-78
2022/01/31 02:20:08;;;;;;;20.05;6.30;;;;;;;3.71;97.83;101037.44;5069338;28;20085;-79
2022/01/31 02:22:33;;;;;;;17.75;6.22;;;;;;;3.70;97.69;101032.31;5069702;28;20032;-79
2022/01/31 02:24:59;;;;;;;17.95;7.32;;;;;;;3.71;99.48;101042.56;5068401;28;20359;-79
2022/01/31 02:27:30;;;;;;;16.92;6.65;;;;;;;3.75;98.71;101039.22;5069269;28;20032;-78
2022/01/31 02:29:55;;;;;;;21.17;7.22;;;;;;;3.75;98.96;101021.25;5069678;28;20395;-78
2022/01/31 02:32:22;;;;;;;18.70;6.72;;;;;;;3.77;99.84;101027.25;5069609;28;20502;-78
2022/01/31 02:34:48;;;;;;;18.55;7.35;;;;;;;3.80;99.51;101032.41;5067815;28;20063;-79
2022/01/31 02:37:14;;;;;;;20.33;7.45;;;;;;;3.80;99.55;101011.88;5068068;28;20028;-78
2022/01/31 02:39:39;;;;;;;21.85;7.70;;;;;;;3.88;99.42;101011.94;5065345;28;20052;-78
2022/01/31 02:42:05;;;;;;;18.33;7.90;;;;;;;3.88;100.00;101007.69;5068817;28;20025;-79
2022/01/31 02:44:30;;;;;;;19.23;6.68;;;;;;;3.94;99.92;101006.84;5069589;28;20453;-79
2022/01/31 02:46:56;;;;;;;15.75;7.53;;;;;;;3.93;100.00;100993.16;5069430;28;20379;-78
2022/01/31 02:49:25;;;;;;;16.08;6.90;;;;;;;3.94;100.00;100997.44;5069098;28;20036;-78
2022/01/31 02:51:58;;;;;;;14.90;6.10;;;;;;;3.99;100.00;100971.81;5069589;28;20020;-78
2022/01/31 02:54:24;;;;;;;11.43;5.55;;;;;;;4.01;100.00;100959.00;5069360;28;20154;-79
2022/01/31 02:56:50;;;;;;;13.23;5.40;;;;;;;4.05;100.00;100950.47;5067664;28;20131;-78
2022/01/31 02:59:15;;;;;;;11.93;5.00;;;;;;;4.07;100.00;100946.22;5067850;28;20120;-78
2022/01/31 03:01:40;;;;;;;13.52;5.43;;;;;;;4.12;100.00;100955.63;5069224;28;20114;-78
2022/01/31 03:04:07;;;;;;;15.52;6.57;;;;;;;4.16;100.00;100959.09;5068785;28;20040;-78
2022/01/31 03:06:33;;;;;;;15.60;5.50;;;;;;;4.17;100.00;100943.69;5067981;28;20024;-78
2022/01/31 03:08:58;;;;;;;14.27;5.93;;;;;;;4.17;100.00;100941.13;5069432;28;20029;-78
2022/01/31 03:11:24;;;;;;;11.60;5.68;;;;;;;4.20;100.00;100942.84;5068887;28;20420;-78
2022/01/31 03:13:49;;;;;;;13.63;6.03;;;;;;;4.25;100.00;100938.59;5067983;28;20058;-78
2022/01/31 03:16:14;;;;;;;16.10;5.55;;;;;;;4.26;100.00;100927.47;5069132;28;20071;-78
2022/01/31 03:18:39;;;;;;;16.55;5.50;;;;;;;4.34;100.00;100930.94;5068654;28;20024;-78
2022/01/31 03:21:05;;;;;;;15.75;5.60;;;;;;;4.42;100.00;100942.06;5068593;28;20163;-78
2022/01/31 03:23:30;;;;;;;14.82;5.68;;;;;;;4.48;100.00;100938.66;5067665;28;20024;-78
2022/01/31 03:25:56;;;;;;;17.15;5.65;;;;;;;4.50;100.00;100939.53;5067608;28;20500;-78
2022/01/31 03:28:21;;;;;;;17.20;5.68;;;;;;;4.52;100.00;100930.97;5068629;28;20479;-78
2022/01/31 03:30:46;;;;;;;16.65;5.03;;;;;;;4.55;100.00;100920.72;5067645;28;20017;-78
2022/01/31 03:33:12;;;;;;;14.13;4.60;;;;;;;4.58;100.00;100915.56;5067166;28;20035;-78
2022/01/31 03:35:37;;;;;;;15.80;4.43;;;;;;;4.66;100.00;100906.19;5068898;28;20358;-78
2022/01/31 03:38:03;;;;;;;12.60;4.10;;;;;;;4.66;100.00;100913.88;5068801;28;20445;-78
2022/01/31 03:40:28;;;;;;;13.82;3.75;;;;;;;4.73;100.00;100907.91;5068599;28;20052;-78
2022/01/31 03:42:54;;;;;;;12.50;3.78;;;;;;;4.72;100.00;100906.19;5068365;28;20082;-77
2022/01/31 03:45:19;;;;;;;12.05;3.83;;;;;;;4.76;100.00;100904.50;5069138;28;20050;-77
2022/01/31 03:47:46;;;;;;;14.05;3.65;;;;;;;4.75;100.00;100893.34;5068651;28;20177;-77
2022/01/31 03:50:17;;;;;;;13.35;3.45;;;;;;;4.82;100.00;100890.78;5069509;28;20017;-78
2022/01/31 03:52:42;;;;;;;13.60;3.30;;;;;;;4.80;100.00;100880.50;5068586;28;20035;-77
2022/01/31 03:55:09;;;;;;;16.58;3.55;;;;;;;4.81;100.00;100886.50;5068456;28;20032;-77
2022/01/31 03:57:35;;;;;;;12.20;3.28;;;;;;;4.83;100.00;100884.81;5068348;28;20039;-78
2022/01/31 04:00:04;;;;;;;12.35;3.30;;;;;;;4.84;100.00;100902.78;5069116;28;20028;-78
2022/01/31 04:02:29;;;;;;;11.70;2.90;;;;;;;4.86;100.00;100900.19;5068397;28;20064;-78
2022/01/31 04:04:55;;;;;;;11.23;2.83;;;;;;;4.91;100.00;100893.38;5069096;28;20086;-78
2022/01/31 04:07:20;;;;;;;14.48;3.03;;;;;;;4.89;99.03;100885.66;5068383;28;20490;-78
2022/01/31 04:09:45;;;;;;;11.83;2.40;;;;;;;4.86;99.33;100874.50;5068433;28;20032;-78
2022/01/31 04:12:10;;;;;;;13.02;2.85;;;;;;;4.91;98.77;100883.09;5067926;28;20696;-78
2022/01/31 04:14:36;;;;;;;13.10;2.78;;;;;;;4.90;98.62;100887.38;5069329;28;20032;-78
2022/01/31 04:17:02;;;;;;;14.63;2.70;;;;;;;4.91;98.23;100888.25;5071586;28;20041;-78
2022/01/31 04:19:27;;;;;;;11.82;3.17;;;;;;;4.91;98.45;100889.09;5070457;28;20028;-78
2022/01/31 04:21:52;;;;;;;17.23;3.28;;;;;;;4.93;98.59;100884.78;5072104;28;20027;-77
2022/01/31 04:24:22;;;;;;;11.82;2.40;;;;;;;4.94;98.28;100878.81;5071913;28;20027;-78
2022/01/31 04:26:57;;;;;;;12.00;2.38;;;;;;;4.95;98.46;100870.25;5066379;28;20024;-77
2022/01/31 04:29:24;;;;;;;11.93;2.75;;;;;;;4.95;97.76;100869.38;5072154;28;20479;-77
2022/01/31 04:31:51;;;;;;;9.48;2.10;;;;;;;4.95;97.83;100866.81;5071807;28;20020;-77
2022/01/31 04:34:17;;;;;;;12.85;2.40;;;;;;;4.96;96.69;100869.41;5070183;28;20458;-77
2022/01/31 04:36:42;;;;;;;12.23;1.98;;;;;;;4.97;96.74;100863.41;5071084;28;20603;-77
2022/01/31 04:39:13;;;;;;;11.45;2.17;;;;;;;4.96;96.24;100866.81;5071652;28;20072;-77
2022/01/31 04:41:38;;;;;;;11.93;2.40;;;;;;;4.95;95.70;100872.81;5071611;28;20059;-77
2022/01/31 04:44:07;;;;;;;10.82;1.63;;;;;;;5.02;95.42;100868.53;5070509;28;20028;-77
2022/01/31 04:46:32;;;;;;;12.25;2.10;;;;;;;5.01;94.28;100870.25;5071293;28;20297;-77
2022/01/31 04:48:57;;;;;;;10.77;1.60;;;;;;;5.03;94.68;100878.81;5071061;28;20583;-77
2022/01/31 04:51:23;;;;;;;13.90;2.03;;;;;;;5.04;94.23;100869.41;5071664;28;20036;-77
2022/01/31 04:53:48;;;;;;;13.48;2.10;;;;;;;5.06;93.75;100867.66;5071283;28;20439;-77
2022/01/31 04:56:13;;;;;;;12.07;2.07;;;;;;;5.14;92.21;100871.94;5071332;28;20052;-77
2022/01/31 04:58:40;;;;;;;8.82;1.60;;;;;;;5.20;92.09;100862.50;5071288;28;20290;-76
2022/01/31 05:01:05;;;;;;;14.13;2.15;;;;;;;5.16;91.35;100857.38;5071759;28;20035;-76
2022/01/31 05:03:31;;;;;;;16.17;1.60;;;;;;;5.22;90.48;100859.09;5070716;28;20029;-77
2022/01/31 05:05:56;;;;;;;10.77;2.03;;;;;;;5.20;91.18;100860.78;5071731;28;20055;-77
2022/01/31 05:08:25;;;;;;;7.55;1.42;;;;;;;5.23;90.88;100859.94;5068664;28;20108;-77
2022/01/31 05:10:51;;;;;;;13.88;1.80;;;;;;;5.18;90.33;100852.25;5061450;28;20017;-77
2022/01/31 05:13:17;;;;;;;11.43;1.98;;;;;;;5.20;90.17;100858.22;5071013;28;20020;-77
2022/01/31 05:15:44;;;;;;;12.30;1.85;;;;;;;5.20;89.71;100845.38;5071506;28;20040;-77
2022/01/31 05:18:09;;;;;;;14.02;1.88;;;;;;;5.21;89.19;100848.81;5070282;28;20043;-78
2022/01/31 05:20:35;;;;;;;9.20;1.70;;;;;;;5.23;89.08;100839.38;5071052;28;20247;-77
2022/01/31 05:23:00;;;;;;;12.40;2.13;;;;;;;5.23;88.93;100834.25;5069800;28;20475;-78
2022/01/31 05:25:26;;;;;;;8.57;1.90;;;;;;;5.26;88.54;100829.94;5070544;28;20297;-77
2022/01/31 05:27:51;;;;;;;15.55;1.75;;;;;;;5.24;88.47;100820.53;5070675;28;20020;-78
2022/01/31 05:30:17;;;;;;;11.40;1.45;;;;;;;5.23;88.16;100814.53;5070887;28;20116;-77
2022/01/31 05:32:43;;;;;;;10.18;1.75;;;;;;;5.30;87.38;100830.81;5070163;28;20030;-77
2022/01/31 05:35:08;;;;;;;8.77;1.83;;;;;;;5.27;87.70;100807.66;5070685;28;20540;-77
2022/01/31 05:37:35;;;;;;;11.80;1.55;;;;;;;5.26;86.72;100796.53;5066617;28;20124;-77
2022/01/31 05:40:00;;;;;;;12.95;1.40;;;;;;;5.25;86.18;100796.56;5068351;28;20534;-77
2022/01/31 05:42:26;;;;;;;11.60;1.60;;;;;;;5.24;86.90;100794.84;5070339;28;20063;-77
2022/01/31 05:44:51;;;;;;;11.20;1.70;;;;;;;5.22;86.75;100781.16;5070932;28;20043;-77
2022/01/31 05:47:17;;;;;;;16.08;1.50;;;;;;;5.14;88.74;100794.88;5070034;28;20024;-77
2022/01/31 05:49:42;;;;;;;16.70;2.00;;;;;;;5.07;89.45;100800.00;5069876;28;20086;-77
2022/01/31 05:52:08;;;;;;;12.60;2.13;;;;;;;4.93;90.33;100797.47;5070392;28;20055;-77
2022/01/31 05:54:36;;;;;;;11.27;1.70;;;;;;;4.80;91.60;100833.44;5069876;28;20058;-77
2022/01/31 05:57:02;;;;;;;10.57;1.88;;;;;;;4.65;93.52;100837.72;5070153;28;20040;-77
2022/01/31 05:59:28;;;;;;;6.72;1.58;;;;;;;4.54;94.01;100829.16;5068299;28;20078;-78
2022/01/31 06:01:53;;;;;;;8.40;1.50;;;;;;;4.44;94.36;100850.53;5069234;28;20025;-78
2022/01/31 06:04:19;;;;;;;11.98;1.38;;;;;;;4.31;95.19;100838.53;5068057;28;20043;-78
2022/01/31 06:06:45;;;;;;;7.10;1.60;;;;;;;4.21;96.14;100841.94;5066076;28;20028;-78
2022/01/31 06:09:11;;;;;;;9.25;1.70;;;;;;;4.09;96.93;100832.53;5063169;28;20054;-78
2022/01/31 06:11:36;;;;;;;10.73;1.58;;;;;;;4.03;97.53;100841.88;5068699;28;20020;-78
2022/01/31 06:14:08;;;;;;;8.20;2.20;;;;;;;3.97;98.18;100822.22;5058173;28;20074;-78
2022/01/31 06:16:33;;;;;;;10.18;1.85;;;;;;;3.94;97.88;100802.56;5061137;28;20028;-79
2022/01/31 06:18:59;;;;;;;13.02;2.78;;;;;;;3.89;98.11;100814.50;5071801;28;20028;-78
2022/01/31 06:21:25;;;;;;;11.32;1.90;;;;;;;3.87;98.29;100816.22;5054584;28;20399;-78
2022/01/31 06:23:50;;;;;;;7.75;1.50;;;;;;;3.87;98.04;100816.22;5058757;28;20479;-78
2022/01/31 06:26:16;;;;;;;13.32;1.80;;;;;;;3.84;98.50;100803.38;5069268;28;20028;-78
2022/01/31 06:28:41;;;;;;;6.70;1.60;;;;;;;3.85;98.45;100801.69;5069165;28;20028;-78
2022/01/31 06:31:07;;;;;;;11.27;1.77;;;;;;;3.84;98.61;100807.66;5062079;28;20437;-78
2022/01/31 06:33:32;;;;;;;11.85;1.92;;;;;;;3.84;99.17;100797.41;5069504;28;20034;-78
2022/01/31 06:35:59;;;;;;;14.25;2.10;;;;;;;3.86;98.59;100799.13;5072440;28;20363;-78
2022/01/31 06:38:25;;;;;;;10.70;1.70;;;;;;;3.84;99.08;100816.19;5078249;28;20131;-78
2022/01/31 06:40:51;;;;;;;12.75;1.80;;;;;;;3.83;99.39;100805.94;5058309;28;20025;-78
2022/01/31 06:43:17;;;;;;;13.57;1.88;;;;;;;3.88;99.18;100801.69;5068427;28;20032;-78
2022/01/31 06:45:42;;;;;;;13.82;2.30;;;;;;;3.84;98.99;100798.25;5069654;28;20040;-78
2022/01/31 06:48:08;;;;;;;14.20;2.63;;;;;;;3.84;99.25;100813.63;5066497;28;20029;-78
2022/01/31 06:50:34;;;;;;;13.85;2.13;;;;;;;3.83;99.56;100799.09;5057010;28;20529;-78
2022/01/31 06:53:01;;;;;;;15.20;2.33;;;;;;;3.88;98.61;100799.13;5071250;28;20032;-78
2022/01/31 06:55:28;;;;;;;14.15;2.03;;;;;;;3.85;99.16;100793.97;5078436;28;20029;-78
2022/01/31 06:57:54;;;;;;;18.45;2.00;;;;;;;3.84;99.60;100794.81;5067789;28;20032;-78
2022/01/31 07:00:20;;;;;;;13.38;1.63;;;;;;;3.90;97.96;100793.13;5069321;28;20437;-78
2022/01/31 07:02:47;;;;;;;8.70;1.92;;;;;;;3.89;98.19;100806.81;5069010;28;20032;-77
2022/01/31 07:05:14;;;;;;;15.02;2.05;;;;;;;3.94;97.59;100794.88;5067856;28;20039;-77
2022/01/31 07:07:40;;;;;;;14.90;2.10;;;;;;;3.89;98.08;100805.97;5069609;28;20048;-77
2022/01/31 07:10:06;;;;;;;15.05;2.00;;;;;;;3.94;97.82;100801.72;5067918;28;20027;-77
2022/01/31 07:12:35;;;;;;;12.82;1.98;;;;;;;3.89;98.20;100804.25;5069044;28;20103;-77
2022/01/31 07:15:02;;;;;;;19.05;2.60;;;;;;;3.89;98.46;100816.22;5069170;28;20028;-77
2022/01/31 07:17:27;;;;;;;10.65;2.10;;;;;;;3.90;98.07;100807.66;5058821;28;20028;-77
2022/01/31 07:19:54;;;;;;;15.03;2.03;;;;;;;3.87;99.63;100813.66;5067846;28;20394;-77
2022/01/31 07:22:22;;;;;;;14.05;2.50;;;;;;;3.87;99.27;100815.38;5067057;28;20294;-77
2022/01/31 07:24:51;;;;;;;19.70;2.20;;;;;;;3.85;98.97;100819.63;5069050;28;20032;-77
2022/01/31 07:27:17;;;;;;;15.10;1.92;;;;;;;3.88;99.77;100846.16;5068778;28;20020;-77
2022/01/31 07:29:44;;;;;;;18.00;2.70;;;;;;;3.88;99.81;100848.72;5069304;28;20024;-78
2022/01/31 07:32:10;;;;;;;20.33;2.20;;;;;;;3.88;100.00;100845.28;5068489;28;20032;-79
2022/01/31 07:34:37;;;;;;;12.88;2.35;;;;;;;3.83;100.00;100834.13;5067089;28;20039;-79
2022/01/31 07:37:03;;;;;;;15.38;2.30;;;;;;;3.81;100.00;100833.28;5067181;28;20031;-79
2022/01/31 07:39:29;;;;;;;13.55;2.53;;;;;;;3.81;100.00;100846.97;5068910;28;20045;-78
2022/01/31 07:41:54;;;;;;;15.20;2.22;;;;;;;3.81;100.00;100857.22;5065794;28;20029;-79
2022/01/31 07:44:20;;;;;;;13.80;2.08;;;;;;;3.77;100.00;100829.84;5069052;28;20035;-79
2022/01/31 07:46:46;;;;;;;17.67;2.20;;;;;;;3.78;100.00;100829.00;5082856;28;20024;-78
2022/01/31 07:49:11;;;;;;;8.70;1.48;;;;;;;3.72;100.00;100830.69;5070993;28;20032;-78
2022/01/31 07:51:40;;;;;;;15.68;1.95;;;;;;;3.74;100.00;100813.63;5072396;28;20082;-78
2022/01/31 07:54:06;;;;;;;11.50;1.90;;;;;;;3.73;100.00;100817.88;5073070;28;20415;-78
2022/01/31 07:56:31;;;;;;;15.50;2.35;;;;;;;3.72;100.00;100823.00;5071961;28;20518;-78
2022/01/31 07:58:57;;;;;;;12.63;1.88;;;;;;;3.74;100.00;100814.47;5072652;28;20025;-78
2022/01/31 08:01:22;;;;;;;22.40;1.98;;;;;;;3.74;100.00;100823.88;5070484;28;20447;-78
2022/01/31 08:03:47;;;;;;;16.52;1.95;;;;;;;3.75;100.00;100826.44;5070390;28;20059;-77
2022/01/31 08:06:14;;;;;;;21.25;2.65;;;;;;;3.78;100.00;100841.81;5072255;28;20029;-77
2022/01/31 08:08:41;;;;;;;14.63;2.42;;;;;;;3.78;100.00;100830.72;5071657;28;20035;-77
2022/01/31 08:11:06;;;;;;;16.00;2.05;;;;;;;3.76;100.00;100822.16;5071816;28;20042;-77
2022/01/31 08:13:33;;;;;;;15.85;1.88;;;;;;;3.77;100.00;100821.28;5070375;28;20032;-77
2022/01/31 08:18:34;;;;;;;18.88;2.08;;;;;;;3.83;100.00;100840.13;5072251;28;20028;-80
2022/01/31 08:21:03;;;;;;;19.67;2.38;;;;;;;3.88;100.00;100845.28;5070871;28;20093;-79
2022/01/31 08:23:28;;;;;;;19.33;2.78;;;;;;;3.85;100.00;100838.44;5072094;28;20103;-78
2022/01/31 08:25:54;;;;;;;21.73;2.58;;;;;;;3.88;100.00;100845.28;5070906;28;20124;-78
2022/01/31 08:28:27;;;;;;;18.33;1.95;;;;;;;3.87;100.00;100835.88;5071741;28;20028;-78
2022/01/31 08:30:58;;;;;;;22.52;2.22;;;;;;;3.91;100.00;100838.44;5071180;28;20066;-77
2022/01/31 08:35:59;;;;;;;;;;;;;;;3.92;100.00;100845.28;5067015;28;20032;-78
2022/01/31 08:38:24;;;;;;;15.32;1.95;;;;;;;3.90;100.00;100857.25;5071508;28;19923;-78
2022/01/31 08:40:50;;;;;;;18.35;2.47;;;;;;;3.93;100.00;100838.44;5071852;28;20398;-79
2022/01/31 08:43:17;;;;;;;21.20;3.00;;;;;;;3.92;100.00;100835.03;5071428;28;20035;-78
2022/01/31 08:45:42;;;;;;;15.15;1.77;;;;;;;3.94;100.00;100847.88;5071668;28;20031;-77
2022/01/31 08:48:08;;;;;;;12.27;1.80;;;;;;;3.97;100.00;100833.34;5069680;28;20025;-78
2022/01/31 08:50:33;;;;;;;16.10;2.22;;;;;;;3.96;100.00;100836.75;5071964;28;20099;-78
2022/01/31 08:52:58;;;;;;;21.25;3.08;;;;;;;3.98;100.00;100852.13;5071396;28;20043;-77
2022/01/31 08:55:25;;;;;;;14.38;1.88;;;;;;;3.98;100.00;100840.19;5070795;28;20052;-77
2022/01/31 08:57:54;;;;;;;18.30;2.20;;;;;;;3.96;100.00;100830.75;5069031;28;20418;-77
2022/01/31 09:00:20;;;;;;;27.30;2.80;;;;;;;4.02;100.00;100837.63;5064707;28;20028;-77
2022/01/31 09:03:00;;;;;;;20.48;2.55;;;;;;;4.05;100.00;100835.91;5070312;28;20071;-76
2022/01/31 09:05:26;;;;;;;20.10;2.30;;;;;;;4.03;100.00;100821.38;5070532;28;20024;-77
2022/01/31 09:07:51;;;;;;;19.75;2.30;;;;;;;4.08;100.00;100833.38;5071166;28;20028;-76
2022/01/31 09:10:18;;;;;;;16.63;2.10;;;;;;;4.10;100.00;100833.34;5071422;28;20020;-78
2022/01/31 09:12:43;;;;;;;16.02;1.75;;;;;;;4.06;100.00;100850.47;5070929;28;20024;-78
2022/01/31 09:15:12;;;;;;;16.02;1.98;;;;;;;4.08;100.00;100861.59;5070166;28;20119;-78
2022/01/31 09:17:37;;;;;;;17.05;1.83;;;;;;;4.08;100.00;100853.91;5070579;28;20024;-77
2022/01/31 09:20:03;;;;;;;12.40;2.10;;;;;;;4.09;100.00;100857.31;5071126;28;20036;-78
2022/01/31 09:22:28;;;;;;;13.85;2.33;;;;;;;4.12;100.00;100863.28;5070973;28;20032;-78
2022/01/31 09:24:54;;;;;;;16.43;2.10;;;;;;;4.10;100.00;100853.88;5070994;28;20040;-77
2022/01/31 09:27:19;;;;;;;23.17;2.80;;;;;;;4.10;100.00;100880.38;5070705;28;20296;-77
2022/01/31 09:29:45;;;;;;;24.20;2.60;;;;;;;4.07;100.00;100857.31;5071146;28;20419;-78
2022/01/31 09:32:12;;;;;;;15.13;2.70;;;;;;;4.11;100.00;100859.00;5070402;28;20028;-77
2022/01/31 09:34:37;;;;;;;23.85;3.00;;;;;;;4.08;100.00;100868.44;5070733;28;20028;-80
2022/01/31 09:37:03;;;;;;;23.40;3.60;;;;;;;4.07;100.00;100884.66;5070144;28;20448;-78
2022/01/31 09:39:28;;;;;;;24.33;2.63;;;;;;;4.08;100.00;100881.25;5070642;28;20131;-76
2022/01/31 09:41:57;;;;;;;23.15;2.90;;;;;;;4.07;100.00;100885.53;5069020;28;20032;-76
2022/01/31 09:44:44;;;;;;;27.20;2.50;;;;;;;4.05;100.00;100909.44;5070822;28;20081;-77
2022/01/31 09:47:21;;;;;;;26.92;3.17;;;;;;;4.07;100.00;100912.88;5068041;28;20032;-78
2022/01/31 09:49:47;;;;;;;25.80;2.72;;;;;;;4.11;100.00;100897.50;5059712;28;20025;-79
2022/01/31 09:52:14;;;;;;;30.17;3.40;;;;;;;4.09;100.00;100888.97;5070291;28;20111;-77
2022/01/31 09:54:40;;;;;;;26.60;3.50;;;;;;;4.09;100.00;100891.53;5068979;28;20024;-76
2022/01/31 09:57:06;;;;;;;33.17;3.53;;;;;;;4.10;100.00;100905.16;5070394;28;20036;-77
2022/01/31 09:59:31;;;;;;;23.73;3.10;;;;;;;4.09;100.00;100909.47;5069768;28;20032;-77
2022/01/31 10:01:58;;;;;;;29.23;3.22;;;;;;;4.10;100.00;100916.28;5069576;28;20027;-76
2022/01/31 10:04:30;;;;;;;20.00;3.08;;;;;;;4.13;100.00;100930.84;5070128;28;20027;-78
2022/01/31 10:06:57;;;;;;;24.70;3.72;;;;;;;4.10;100.00;100918.00;5069699;28;20028;-76
2022/01/31 10:09:32;;;;;;;25.45;2.80;;;;;;;4.07;100.00;100923.13;5070247;28;20028;-75
2022/01/31 10:12:18;;;;;;;22.02;3.05;;;;;;;4.01;100.00;100920.53;5069942;28;20510;-76
2022/01/31 10:17:35;;;;;;;26.73;3.22;;;;;;;4.05;100.00;100935.94;5069552;28;20134;-75
2022/01/31 10:20:04;;;;;;;32.50;3.45;;;;;;;4.06;100.00;100944.50;5070411;28;20043;-75
2022/01/31 10:22:32;;;;;;;25.48;3.15;;;;;;;4.08;100.00;100945.38;5069739;28;20036;-75
2022/01/31 10:25:00;;;;;;;27.15;3.15;;;;;;;4.11;100.00;100964.19;5068454;28;20390;-77
2022/01/31 10:27:29;;;;;;;36.97;5.57;;;;;;;4.13;100.00;100954.78;5067421;28;20028;-78
2022/01/31 10:30:06;;;;;;;30.17;3.88;;;;;;;4.15;100.00;100975.31;5069857;28;20105;-77
2022/01/31 10:32:35;;;;;;;30.55;3.78;;;;;;;4.14;100.00;100976.16;5069175;28;20513;-76
2022/01/31 10:35:05;;;;;;;36.28;3.40;;;;;;;4.16;100.00;100979.59;5068244;28;20032;-76
2022/01/31 10:37:31;;;;;;;39.17;4.07;;;;;;;4.18;100.00;100980.44;5069370;28;20027;-79
2022/01/31 10:46:08;;;;;;;34.85;3.97;;;;;;;4.20;100.00;100989.88;5068514;28;20058;-77
2022/01/31 10:53:53;;;;;;;32.15;4.10;;;;;;;4.25;100.00;100992.47;5067263;28;20478;-76
2022/01/31 10:56:19;;;;;;;32.33;4.32;;;;;;;4.24;100.00;101001.84;5066128;28;20028;-77
2022/01/31 10:58:55;;;;;;;33.72;4.03;;;;;;;4.25;100.00;100984.75;5069499;28;20398;-76
2022/01/31 11:01:20;;;;;;;35.38;3.70;;;;;;;4.28;100.00;101005.31;5064585;28;20032;-76
2022/01/31 11:03:46;;;;;;;25.27;3.58;;;;;;;4.29;100.00;100984.81;5063455;28;20028;-76
2022/01/31 11:06:13;;;;;;;28.73;3.50;;;;;;;4.28;99.79;101010.44;5069641;28;20024;-76
2022/01/31 11:08:39;;;;;;;33.28;3.42;;;;;;;4.25;99.68;101023.25;5069418;28;20052;-77
2022/01/31 11:11:06;;;;;;;20.23;3.00;;;;;;;4.21;99.03;101029.22;5069463;28;20035;-75
2022/01/31 11:13:33;;;;;;;35.58;4.20;;;;;;;4.15;99.70;101040.31;5067772;28;20632;-77
2022/01/31 11:15:59;;;;;;;28.42;3.63;;;;;;;4.15;100.00;101045.44;5084726;28;20020;-76
2022/01/31 11:18:32;;;;;;;29.95;3.70;;;;;;;4.14;100.00;101050.56;5069148;28;20028;-75
2022/01/31 11:21:00;;;;;;;28.73;3.63;;;;;;;4.12;99.99;101053.09;5067962;28;20067;-75
2022/01/31 11:23:28;;;;;;;30.02;3.28;;;;;;;4.06;100.00;101047.94;5063204;28;20066;-76
2022/01/31 11:26:00;;;;;;;27.77;3.78;;;;;;;4.05;100.00;101046.22;5071951;28;20166;-79
2022/01/31 11:28:33;;;;;;;23.75;3.25;;;;;;;4.01;100.00;101067.59;5066044;28;20086;-77
2022/01/31 11:31:01;;;;;;;35.42;3.65;;;;;;;4.05;100.00;101040.25;5071750;28;20510;-77
2022/01/31 11:33:27;;;;;;;31.77;3.40;;;;;;;4.08;100.00;101061.66;5072791;28;20032;-77
2022/01/31 11:35:53;;;;;;;27.15;3.88;;;;;;;4.06;100.00;101037.69;5072956;28;20038;-77
2022/01/31 11:38:19;;;;;;;30.83;3.33;;;;;;;4.08;100.00;101068.47;5071092;28;20068;-77